createdAt,value
2022-09-14T00:01:25.238Z,1.97
2022-09-14T00:03:57.528Z,1.47
2022-09-14T00:06:24.845Z,1.63
2022-09-14T00:08:53.173Z,1.47
2022-09-14T00:11:21.404Z,1.50
2022-09-14T00:13:49.245Z,1.10
2022-09-14T00:16:22.670Z,1.00
2022-09-14T00:18:54.524Z,1.43
2022-09-14T00:21:22.302Z,1.07
2022-09-14T00:23:48.969Z,1.40
2022-09-14T00:26:18.067Z,1.30
2022-09-14T00:28:48.482Z,1.73
2022-09-14T00:31:15.869Z,1.20
2022-09-14T00:33:43.788Z,1.83
2022-09-14T00:36:13.127Z,1.57
2022-09-14T00:38:40.176Z,1.53
2022-09-14T00:41:10.883Z,1.40
2022-09-14T00:44:01.673Z,1.37
2022-09-14T00:46:35.170Z,1.97
2022-09-14T00:49:04.040Z,1.87
2022-09-14T00:51:33.288Z,1.23
2022-09-14T00:54:04.486Z,1.30
2022-09-14T00:56:31.560Z,1.23
2022-09-14T00:58:59.651Z,1.23
2022-09-14T01:01:26.774Z,0.93
2022-09-14T01:03:53.531Z,1.10
2022-09-14T01:06:29.536Z,1.30
2022-09-14T01:09:18.589Z,1.30
2022-09-14T01:11:56.494Z,1.10
2022-09-14T01:14:42.311Z,1.10
2022-09-14T01:17:30.321Z,1.30
2022-09-14T01:20:14.274Z,1.13
2022-09-14T01:22:58.719Z,1.17
2022-09-14T01:25:49.766Z,1.37
2022-09-14T01:28:26.988Z,1.40
2022-09-14T01:30:56.013Z,1.17
2022-09-14T01:33:31.639Z,1.50
2022-09-14T01:36:02.314Z,1.10
2022-09-14T01:38:33.782Z,1.47
2022-09-14T01:41:04.025Z,1.30
2022-09-14T01:43:46.354Z,0.90
2022-09-14T01:46:17.498Z,1.70
2022-09-14T01:49:02.277Z,1.27
2022-09-14T01:51:37.816Z,1.30
2022-09-14T01:54:18.274Z,1.57
2022-09-14T01:57:02.715Z,1.50
2022-09-14T01:59:36.963Z,1.50
2022-09-14T02:02:28.238Z,1.50
2022-09-14T02:05:08.157Z,1.50
2022-09-14T02:07:36.474Z,1.17
2022-09-14T02:10:06.362Z,0.97
2022-09-14T02:12:33.031Z,1.37
2022-09-14T02:14:59.707Z,1.30
2022-09-14T02:17:26.233Z,1.50
2022-09-14T02:20:05.085Z,1.80
2022-09-14T02:22:31.868Z,1.23
2022-09-14T02:24:58.796Z,1.13
2022-09-14T02:27:25.638Z,1.20
2022-09-14T02:29:52.960Z,1.20
2022-09-14T02:32:32.471Z,1.73
2022-09-14T02:35:14.961Z,1.23
2022-09-14T02:38:03.271Z,1.13
2022-09-14T02:40:54.541Z,1.20
2022-09-14T02:43:35.192Z,1.07
2022-09-14T02:46:16.573Z,1.20
2022-09-14T02:49:01.733Z,1.63
2022-09-14T02:51:38.159Z,1.10
2022-09-14T02:54:24.885Z,1.43
2022-09-14T02:56:51.526Z,1.33
2022-09-14T02:59:18.616Z,1.30
2022-09-14T03:01:45.267Z,1.73
2022-09-14T03:04:11.846Z,1.17
2022-09-14T03:06:38.370Z,2.10
2022-09-14T03:09:04.888Z,1.83
2022-09-14T03:11:31.394Z,1.30
2022-09-14T03:13:57.921Z,1.30
2022-09-14T03:16:24.511Z,1.30
2022-09-14T03:18:51.346Z,1.27
2022-09-14T03:21:18.013Z,1.13
2022-09-14T03:23:49.867Z,1.43
2022-09-14T03:26:19.818Z,1.50
2022-09-14T03:28:51.611Z,1.40
2022-09-14T03:31:18.494Z,1.10
2022-09-14T03:33:45.036Z,1.40
2022-09-14T03:36:17.280Z,1.30
2022-09-14T03:38:52.168Z,1.30
2022-09-14T03:41:20.078Z,1.37
2022-09-14T03:43:47.076Z,1.10
2022-09-14T03:46:16.587Z,1.50
2022-09-14T03:48:44.101Z,1.57
2022-09-14T03:51:12.780Z,1.87
2022-09-14T03:53:40.295Z,1.50
2022-09-14T03:56:15.032Z,1.30
2022-09-14T03:58:41.995Z,1.53
2022-09-14T04:01:11.050Z,1.50
2022-09-14T04:03:38.166Z,1.20
2022-09-14T04:06:05.862Z,1.63
2022-09-14T04:08:37.456Z,1.77
2022-09-14T04:11:25.192Z,1.43
2022-09-14T04:13:53.071Z,1.30
2022-09-14T04:16:21.039Z,1.37
2022-09-14T04:18:48.469Z,1.43
2022-09-14T04:21:17.630Z,1.97
2022-09-14T04:24:13.369Z,1.53
2022-09-14T04:26:32.054Z,1.63
2022-09-14T04:28:58.988Z,1.57
2022-09-14T04:31:25.714Z,2.20
2022-09-14T04:33:56.134Z,1.10
2022-09-14T04:36:28.056Z,1.50
2022-09-14T04:38:55.912Z,1.67
2022-09-14T04:41:22.911Z,1.30
2022-09-14T04:43:51.349Z,1.43
2022-09-14T04:46:21.020Z,1.40
2022-09-14T04:48:48.657Z,1.67
2022-09-14T04:51:18.503Z,1.63
2022-09-14T04:53:51.728Z,1.17
2022-09-14T04:56:20.197Z,1.60
2022-09-14T04:58:51.698Z,2.00
2022-09-14T05:01:21.076Z,1.83
2022-09-14T05:03:48.149Z,1.50
2022-09-14T05:06:20.316Z,1.70
2022-09-14T05:08:47.241Z,1.70
2022-09-14T05:11:19.652Z,1.53
2022-09-14T05:13:49.913Z,1.50
2022-09-14T05:16:30.510Z,1.20
2022-09-14T05:19:01.768Z,1.50
2022-09-14T05:21:30.404Z,1.40
2022-09-14T05:23:59.132Z,1.30
2022-09-14T05:26:27.350Z,1.63
2022-09-14T05:28:56.113Z,1.93
2022-09-14T05:31:24.321Z,1.63
2022-09-14T05:33:51.463Z,1.53
2022-09-14T05:36:18.093Z,1.70
2022-09-14T05:38:44.781Z,1.40
2022-09-14T05:41:13.468Z,1.30
2022-09-14T05:43:40.958Z,1.47
2022-09-14T05:46:11.445Z,1.83
2022-09-14T05:48:39.688Z,1.63
2022-09-14T05:51:21.955Z,1.27
2022-09-14T05:53:53.361Z,1.13
2022-09-14T05:56:21.524Z,1.33
2022-09-14T05:58:48.750Z,1.07
2022-09-14T06:01:23.928Z,1.10
2022-09-14T06:03:53.745Z,1.57
2022-09-14T06:06:21.113Z,1.00
2022-09-14T06:08:52.268Z,1.13
2022-09-14T06:11:21.468Z,1.27
2022-09-14T06:13:48.465Z,1.30
2022-09-14T06:16:16.894Z,1.90
2022-09-14T06:18:44.739Z,1.33
2022-09-14T06:21:16.665Z,1.30
2022-09-14T06:23:44.044Z,1.70
2022-09-14T06:26:11.096Z,1.47
2022-09-14T06:28:38.034Z,1.40
2022-09-14T06:31:07.516Z,1.50
2022-09-14T06:33:34.741Z,1.50
2022-09-14T06:36:11.362Z,1.90
2022-09-14T06:38:38.525Z,1.13
2022-09-14T06:41:06.880Z,1.33
2022-09-14T06:43:36.070Z,1.43
2022-09-14T06:46:05.875Z,2.03
2022-09-14T06:48:38.901Z,1.53
2022-09-14T06:51:17.788Z,1.77
2022-09-14T06:53:45.995Z,1.97
2022-09-14T06:56:13.560Z,1.60
2022-09-14T06:58:40.576Z,1.70
2022-09-14T07:01:10.825Z,1.77
2022-09-14T07:03:38.910Z,1.87
2022-09-14T07:06:14.403Z,1.73
2022-09-14T07:08:41.920Z,1.30
2022-09-14T07:11:10.387Z,1.53
2022-09-14T07:13:37.326Z,1.80
2022-09-14T07:16:04.858Z,1.70
2022-09-14T07:18:32.716Z,1.20
2022-09-14T07:21:10.056Z,2.40
2022-09-14T07:23:38.979Z,1.83
2022-09-14T07:26:11.186Z,2.00
2022-09-14T07:28:38.269Z,1.73
2022-09-14T07:31:14.184Z,1.53
2022-09-14T07:33:40.792Z,2.20
2022-09-14T07:36:09.589Z,1.57
2022-09-14T07:38:51.623Z,1.80
2022-09-14T07:41:23.698Z,1.90
2022-09-14T07:43:51.951Z,1.73
2022-09-14T07:46:19.453Z,1.60
2022-09-14T07:48:46.293Z,1.93
2022-09-14T07:51:12.853Z,1.70
2022-09-14T07:53:44.267Z,1.73
2022-09-14T07:56:12.129Z,1.90
2022-09-14T07:58:39.034Z,1.90
2022-09-14T08:01:08.545Z,2.07
2022-09-14T08:03:40.069Z,2.20
2022-09-14T08:06:19.383Z,2.23
2022-09-14T08:08:48.093Z,2.37
2022-09-14T08:11:20.145Z,2.30
2022-09-14T08:13:50.426Z,2.50
2022-09-14T08:16:19.146Z,1.90
2022-09-14T08:18:46.823Z,2.67
2022-09-14T08:21:17.506Z,2.47
2022-09-14T08:23:44.948Z,1.93
2022-09-14T08:26:17.427Z,2.47
2022-09-14T08:28:45.002Z,2.50
2022-09-14T08:31:17.935Z,1.87
2022-09-14T08:33:46.466Z,2.40
2022-09-14T08:36:15.418Z,2.33
2022-09-14T08:38:42.176Z,2.43
2022-09-14T08:41:28.519Z,2.67
2022-09-14T08:44:12.786Z,2.33
2022-09-14T08:46:46.772Z,2.20
2022-09-14T08:49:18.871Z,2.23
2022-09-14T08:51:45.914Z,2.20
2022-09-14T08:54:12.533Z,2.03
2022-09-14T08:56:44.588Z,2.40
2022-09-14T08:59:41.974Z,2.30
2022-09-14T09:02:27.541Z,2.23
2022-09-14T09:04:57.325Z,2.00
2022-09-14T09:07:34.238Z,2.77
2022-09-14T09:10:03.749Z,2.17
2022-09-14T09:12:38.077Z,2.63
2022-09-14T09:15:25.882Z,3.20
2022-09-14T09:17:58.083Z,2.47
2022-09-14T09:20:38.666Z,2.50
2022-09-14T09:23:15.275Z,2.90
2022-09-14T09:26:03.474Z,2.47
2022-09-14T09:28:30.814Z,2.30
2022-09-14T09:31:10.183Z,2.10
2022-09-14T09:33:39.368Z,2.30
2022-09-14T09:36:08.187Z,2.37
2022-09-14T09:38:34.840Z,1.87
2022-09-14T09:41:15.482Z,2.50
2022-09-14T09:44:06.932Z,2.53
2022-09-14T09:46:35.339Z,2.10
2022-09-14T09:49:05.065Z,2.20
2022-09-14T09:51:33.139Z,2.07
2022-09-14T09:54:15.211Z,2.23
2022-09-14T09:56:59.385Z,2.20
2022-09-14T09:59:38.609Z,2.47
2022-09-14T10:02:20.628Z,1.83
2022-09-14T10:05:00.192Z,2.57
2022-09-14T10:07:28.476Z,2.37
2022-09-14T10:10:05.568Z,2.53
2022-09-14T10:12:32.609Z,2.40
2022-09-14T10:15:27.613Z,2.00
2022-09-14T10:18:07.336Z,2.37
2022-09-14T10:20:34.747Z,2.90
2022-09-14T10:23:19.519Z,2.10
2022-09-14T10:25:47.623Z,2.23
2022-09-14T10:28:26.143Z,1.90
2022-09-14T10:31:01.593Z,1.77
2022-09-14T10:33:29.410Z,1.50
2022-09-14T10:36:24.292Z,1.90
2022-09-14T10:38:53.029Z,2.53
2022-09-14T10:41:34.131Z,2.47
2022-09-14T10:44:38.672Z,2.27
2022-09-14T10:47:38.837Z,2.37
2022-09-14T10:50:33.561Z,2.23
2022-09-14T10:53:41.247Z,2.00
2022-09-14T10:56:23.390Z,1.97
2022-09-14T10:59:08.474Z,1.97
2022-09-14T11:01:53.090Z,2.00
2022-09-14T11:04:38.593Z,2.60
2022-09-14T11:07:14.577Z,2.90
2022-09-14T11:09:49.844Z,2.17
2022-09-14T11:12:34.798Z,2.47
2022-09-14T11:15:27.756Z,2.33
2022-09-14T11:18:19.439Z,2.97
2022-09-14T11:21:09.011Z,2.40
2022-09-14T11:23:44.490Z,2.93
2022-09-14T11:26:42.518Z,2.10
2022-09-14T11:29:35.929Z,2.20
2022-09-14T11:32:21.327Z,2.40
2022-09-14T11:34:54.687Z,2.63
2022-09-14T11:37:29.188Z,1.70
2022-09-14T11:40:05.714Z,2.00
2022-09-14T11:42:57.075Z,2.27
2022-09-14T11:45:31.724Z,1.60
2022-09-14T11:48:38.332Z,1.90
2022-09-14T11:51:13.779Z,2.03
2022-09-14T11:53:42.606Z,2.10
2022-09-14T11:56:33.694Z,2.63
2022-09-14T11:59:06.719Z,2.93
2022-09-14T12:01:40.851Z,2.03
2022-09-14T12:04:16.738Z,3.37
2022-09-14T12:06:45.557Z,3.67
2022-09-14T12:09:20.839Z,3.77
2022-09-14T12:11:52.927Z,2.17
2022-09-14T12:14:28.661Z,1.90
2022-09-14T12:17:38.754Z,1.97
2022-09-14T12:20:33.980Z,1.40
2022-09-14T12:23:42.337Z,1.57
2022-09-14T12:26:14.557Z,2.10
2022-09-14T12:28:48.258Z,1.67
2022-09-14T12:31:32.710Z,1.80
2022-09-14T12:34:34.738Z,1.67
2022-09-14T12:37:27.720Z,1.50
2022-09-14T12:40:24.211Z,2.17
2022-09-14T12:42:50.915Z,2.23
2022-09-14T12:45:50.985Z,1.60
2022-09-14T12:48:46.050Z,1.80
2022-09-14T12:51:47.657Z,2.03
2022-09-14T12:54:51.482Z,2.30
2022-09-14T12:57:30.425Z,2.40
2022-09-14T13:00:18.233Z,2.30
2022-09-14T13:03:20.384Z,2.37
2022-09-14T13:05:47.017Z,2.30
2022-09-14T13:08:20.534Z,1.20
2022-09-14T13:10:50.613Z,1.07
2022-09-14T13:13:31.527Z,1.37
2022-09-14T13:16:00.863Z,1.30
2022-09-14T13:18:29.062Z,1.30
2022-09-14T13:20:57.945Z,1.23
2022-09-14T13:23:35.774Z,1.37
2022-09-14T13:26:12.914Z,1.70
2022-09-14T13:28:44.365Z,1.43
2022-09-14T13:31:18.560Z,2.23
2022-09-14T13:33:54.243Z,1.50
2022-09-14T13:36:24.788Z,1.90
2022-09-14T13:38:52.132Z,1.20
2022-09-14T13:41:22.821Z,1.50
2022-09-14T13:43:54.021Z,1.20
2022-09-14T13:46:22.883Z,1.20
2022-09-14T13:48:50.799Z,1.23
2022-09-14T13:51:23.040Z,1.33
2022-09-14T13:53:55.548Z,1.27
2022-09-14T13:56:22.177Z,1.37
2022-09-14T13:59:00.575Z,1.00
2022-09-14T14:01:28.707Z,1.47
2022-09-14T14:03:55.482Z,1.07
2022-09-14T14:06:31.508Z,1.03
2022-09-14T14:09:07.413Z,0.80
2022-09-14T14:11:38.062Z,0.87
2022-09-14T14:14:19.063Z,0.70
2022-09-14T14:17:13.687Z,0.70
2022-09-14T14:19:40.578Z,0.87
2022-09-14T14:22:20.290Z,0.80
2022-09-14T14:25:12.810Z,1.10
2022-09-14T14:27:39.991Z,3.17
2022-09-14T14:30:21.284Z,1.20
2022-09-14T14:32:52.210Z,1.40
2022-09-14T14:35:22.681Z,1.37
2022-09-14T14:37:50.563Z,1.10
2022-09-14T14:40:18.490Z,1.83
2022-09-14T14:42:46.570Z,2.20
2022-09-14T14:45:18.995Z,1.40
2022-09-14T14:47:46.832Z,1.40
2022-09-14T14:50:16.892Z,1.03
2022-09-14T14:52:43.871Z,1.03
2022-09-14T14:55:10.912Z,1.33
2022-09-14T14:57:38.846Z,2.00
2022-09-14T15:00:12.304Z,1.67
2022-09-14T15:02:38.838Z,1.50
2022-09-14T15:05:05.832Z,1.10
2022-09-14T15:07:34.884Z,1.40
2022-09-14T15:10:05.328Z,1.30
2022-09-14T15:12:33.302Z,1.20
2022-09-14T15:15:00.350Z,1.40
2022-09-14T15:17:26.984Z,1.63
2022-09-14T15:19:53.729Z,1.40
2022-09-14T15:22:20.721Z,1.30
2022-09-14T15:24:47.290Z,2.00
2022-09-14T15:27:14.705Z,1.60
2022-09-14T15:29:41.217Z,1.63
2022-09-14T15:32:08.056Z,1.30
2022-09-14T15:34:34.751Z,1.13
2022-09-14T15:37:01.601Z,1.00
2022-09-14T15:39:30.228Z,0.90
2022-09-14T15:41:57.183Z,1.27
2022-09-14T15:44:24.179Z,1.07
2022-09-14T15:46:51.273Z,0.90
2022-09-14T15:49:23.955Z,1.73
2022-09-14T15:51:52.692Z,1.33
2022-09-14T15:54:23.030Z,1.40
2022-09-14T15:56:52.883Z,1.30
2022-09-14T15:59:20.126Z,1.67
2022-09-14T16:01:47.378Z,2.00
2022-09-14T16:04:14.202Z,1.50
2022-09-14T16:06:41.309Z,1.50
2022-09-14T16:09:09.875Z,1.47
2022-09-14T16:11:37.804Z,2.00
2022-09-14T16:14:05.483Z,1.50
2022-09-14T16:16:33.541Z,1.80
2022-09-14T16:19:11.683Z,1.43
2022-09-14T16:21:39.221Z,1.13
2022-09-14T16:24:11.928Z,1.40
2022-09-14T16:26:39.411Z,1.50
2022-09-14T16:29:08.363Z,1.70
2022-09-14T16:31:37.103Z,1.40
2022-09-14T16:34:20.019Z,2.03
2022-09-14T16:36:47.473Z,1.60
2022-09-14T16:39:16.639Z,1.80
2022-09-14T16:41:43.621Z,1.87
2022-09-14T16:44:13.315Z,1.90
2022-09-14T16:46:40.120Z,2.17
2022-09-14T16:49:06.769Z,2.27
2022-09-14T16:51:34.235Z,2.07
2022-09-14T16:54:01.436Z,1.90
2022-09-14T16:56:31.259Z,2.17
2022-09-14T16:58:59.490Z,2.67
2022-09-14T17:01:35.165Z,2.30
2022-09-14T17:04:07.117Z,2.47
2022-09-14T17:06:34.443Z,2.60
2022-09-14T17:09:05.083Z,2.30
2022-09-14T17:11:33.204Z,2.10
2022-09-14T17:14:00.480Z,2.07
2022-09-14T17:16:28.088Z,2.60
2022-09-14T17:18:58.464Z,2.17
2022-09-14T17:21:28.159Z,2.23
2022-09-14T17:23:54.753Z,2.47
2022-09-14T17:26:22.551Z,2.23
2022-09-14T17:28:51.276Z,4.90
2022-09-14T17:31:23.710Z,6.00
2022-09-14T17:33:53.031Z,3.83
2022-09-14T17:36:20.073Z,3.57
2022-09-14T17:38:48.773Z,4.60
2022-09-14T17:41:17.675Z,3.33
2022-09-14T17:43:44.270Z,4.13
2022-09-14T17:46:13.537Z,3.60
2022-09-14T17:48:41.326Z,3.57
2022-09-14T17:51:10.657Z,3.30
2022-09-14T17:53:42.441Z,5.37
2022-09-14T17:56:11.692Z,4.00
2022-09-14T17:58:38.457Z,3.53
2022-09-14T18:01:11.397Z,3.90
2022-09-14T18:03:39.650Z,3.70
2022-09-14T18:06:07.998Z,4.27
2022-09-14T18:08:35.316Z,4.10
2022-09-14T18:11:10.962Z,3.67
2022-09-14T18:13:42.048Z,3.67
2022-09-14T18:16:08.923Z,3.97
2022-09-14T18:18:35.902Z,4.00
2022-09-14T18:21:02.764Z,3.83
2022-09-14T18:23:29.571Z,4.03
2022-09-14T18:25:56.463Z,4.03
2022-09-14T18:28:23.964Z,3.83
2022-09-14T18:30:50.570Z,4.03
2022-09-14T18:33:17.457Z,4.07
2022-09-14T18:35:43.965Z,4.07
2022-09-14T18:38:11.795Z,3.83
2022-09-14T18:40:38.760Z,4.30
2022-09-14T18:43:05.404Z,3.80
2022-09-14T18:45:34.197Z,2.90
2022-09-14T18:48:00.881Z,3.63
2022-09-14T18:50:27.392Z,3.57
2022-09-14T18:52:53.924Z,3.30
2022-09-14T18:55:21.284Z,3.60
2022-09-14T18:57:48.773Z,4.10
2022-09-14T19:00:18.670Z,3.10
2022-09-14T19:02:50.746Z,3.53
2022-09-14T19:05:17.301Z,3.03
2022-09-14T19:07:43.822Z,3.00
2022-09-14T19:10:11.798Z,3.47
2022-09-14T19:12:38.513Z,3.07
2022-09-14T19:15:05.806Z,3.60
2022-09-14T19:17:32.573Z,3.47
2022-09-14T19:19:59.518Z,3.03
2022-09-14T19:22:28.065Z,3.60
2022-09-14T19:24:54.627Z,3.30
2022-09-14T19:27:21.164Z,3.30
2022-09-14T19:29:47.673Z,3.27
2022-09-14T19:32:14.253Z,3.20
2022-09-14T19:34:40.921Z,4.00
2022-09-14T19:37:07.474Z,3.50
2022-09-14T19:39:34.049Z,3.60
2022-09-14T19:42:00.583Z,4.03
2022-09-14T19:44:27.378Z,3.50
2022-09-14T19:46:54.023Z,3.27
2022-09-14T19:49:23.797Z,3.17
2022-09-14T19:51:51.320Z,3.20
2022-09-14T19:54:18.241Z,3.20
2022-09-14T19:56:46.086Z,3.20
2022-09-14T19:59:13.619Z,3.00
2022-09-14T20:01:40.680Z,3.17
2022-09-14T20:04:08.222Z,3.87
2022-09-14T20:06:38.009Z,3.50
2022-09-14T20:09:08.129Z,3.57
2022-09-14T20:11:36.342Z,3.37
2022-09-14T20:14:05.082Z,3.20
2022-09-14T20:16:34.754Z,3.80
2022-09-14T20:19:07.716Z,3.40
2022-09-14T20:21:36.130Z,3.90
2022-09-14T20:24:15.545Z,3.57
2022-09-14T20:26:42.704Z,3.50
2022-09-14T20:29:09.252Z,3.60
2022-09-14T20:31:35.832Z,3.50
2022-09-14T20:34:02.462Z,3.47
2022-09-14T20:36:28.998Z,3.37
2022-09-14T20:38:57.714Z,2.87
2022-09-14T20:41:29.739Z,2.80
2022-09-14T20:43:57.731Z,2.10
2022-09-14T20:46:38.418Z,2.40
2022-09-14T20:49:08.406Z,2.23
2022-09-14T20:51:36.484Z,2.43
2022-09-14T20:54:03.533Z,2.40
2022-09-14T20:56:31.965Z,2.60
2022-09-14T20:59:01.022Z,2.90
2022-09-14T21:01:30.066Z,3.27
2022-09-14T21:04:08.999Z,3.47
2022-09-14T21:06:37.696Z,3.80
2022-09-14T21:09:05.493Z,4.40
2022-09-14T21:11:32.769Z,2.73
2022-09-14T21:13:59.969Z,2.80
2022-09-14T21:16:38.089Z,2.20
2022-09-14T21:19:11.490Z,4.30
2022-09-14T21:21:38.088Z,2.37
2022-09-14T21:24:10.346Z,2.90
2022-09-14T21:26:42.398Z,2.70
2022-09-14T21:29:15.411Z,2.77
2022-09-14T21:31:42.708Z,3.43
2022-09-14T21:34:10.607Z,3.90
2022-09-14T21:36:43.204Z,4.20
2022-09-14T21:39:12.504Z,3.63
2022-09-14T21:41:40.792Z,4.17
2022-09-14T21:44:08.074Z,3.40
2022-09-14T21:46:34.739Z,3.77
2022-09-14T21:49:01.329Z,3.53
2022-09-14T21:51:30.991Z,3.93
2022-09-14T21:53:58.618Z,3.73
2022-09-14T21:56:27.456Z,3.43
2022-09-14T21:58:59.352Z,3.20
2022-09-14T22:01:27.379Z,2.77
2022-09-14T22:03:55.541Z,2.43
2022-09-14T22:06:25.744Z,2.80
2022-09-14T22:08:52.775Z,2.50
2022-09-14T22:11:25.512Z,2.40
2022-09-14T22:13:56.420Z,2.23
2022-09-14T22:16:24.533Z,2.33
2022-09-14T22:18:54.340Z,2.07
2022-09-14T22:21:22.433Z,2.53
2022-09-14T22:23:53.936Z,2.60
2022-09-14T22:26:21.442Z,3.10
2022-09-14T22:28:49.374Z,2.53
2022-09-14T22:31:17.928Z,2.57
2022-09-14T22:33:44.949Z,2.27
2022-09-14T22:36:12.068Z,2.40
2022-09-14T22:38:40.937Z,2.10
2022-09-14T22:41:19.646Z,1.93
2022-09-14T22:43:46.648Z,1.93
2022-09-14T22:46:14.375Z,2.43
2022-09-14T22:48:41.572Z,2.77
2022-09-14T22:51:12.342Z,2.33
2022-09-14T22:53:38.928Z,2.10
2022-09-14T22:56:19.164Z,2.27
2022-09-14T22:58:46.989Z,2.80
2022-09-14T23:01:18.093Z,2.47
2022-09-14T23:03:45.101Z,2.83
2022-09-14T23:06:11.793Z,3.27
2022-09-14T23:08:38.554Z,2.80
2022-09-14T23:11:11.259Z,4.30
2022-09-14T23:13:39.842Z,4.47
2022-09-14T23:16:14.614Z,5.33
2022-09-14T23:18:41.620Z,5.53
2022-09-14T23:21:08.799Z,4.90
2022-09-14T23:23:35.798Z,4.47
2022-09-14T23:26:10.234Z,4.10
2022-09-14T23:28:37.744Z,3.67
2022-09-14T23:31:05.757Z,4.87
2022-09-14T23:33:32.748Z,5.43
2022-09-14T23:35:59.643Z,4.37
2022-09-14T23:38:26.415Z,4.20
2022-09-14T23:40:53.072Z,3.80
2022-09-14T23:43:20.444Z,4.63
2022-09-14T23:45:48.016Z,3.37
2022-09-14T23:48:15.339Z,4.53
2022-09-14T23:50:42.322Z,4.20
2022-09-14T23:53:09.047Z,4.70
2022-09-14T23:55:36.250Z,4.20
2022-09-14T23:58:03.477Z,4.07
